sensor_id;sensor_type;location;lat;lon;timestamp;temperature;humidity
22769;DHT22;13001;51.968;5.918;2023-04-25T09:32:30;15.70;81.40
22769;DHT22;13001;51.968;5.918;2023-04-25T09:34:57;18.10;62.00
22769;DHT22;13001;51.968;5.918;2023-04-25T09:37:25;18.10;59.70
22769;DHT22;13001;51.968;5.918;2023-04-25T09:39:53;18.20;59.20
22769;DHT22;13001;51.968;5.918;2023-04-25T09:42:24;18.10;59.10
22769;DHT22;13001;51.968;5.918;2023-04-25T09:44:52;18.10;59.20
22769;DHT22;13001;51.968;5.918;2023-04-25T09:47:19;18.40;59.20
22769;DHT22;13001;51.968;5.918;2023-04-25T09:49:47;19.00;58.30
22769;DHT22;13001;51.968;5.918;2023-04-25T09:52:17;19.70;57.40
22769;DHT22;13001;51.968;5.918;2023-04-25T09:54:46;20.70;54.80
22769;DHT22;13001;51.968;5.918;2023-04-25T09:57:16;21.90;51.70
22769;DHT22;13001;51.968;5.918;2023-04-25T09:59:56;22.90;48.70
22769;DHT22;13001;51.968;5.918;2023-04-25T10:02:24;23.70;48.70
22769;DHT22;13001;51.968;5.918;2023-04-25T10:04:54;24.70;48.30
22769;DHT22;13001;51.968;5.918;2023-04-25T10:22:29;26.20;45.60
22769;DHT22;13001;51.968;5.918;2023-04-25T10:24:57;21.90;47.20
22769;DHT22;13001;51.968;5.918;2023-04-25T10:27:27;20.10;49.40
22769;DHT22;13001;51.968;5.918;2023-04-25T10:30:09;18.90;51.50
22769;DHT22;13001;51.968;5.918;2023-04-25T10:32:39;18.10;53.30
22769;DHT22;13001;51.968;5.918;2023-04-25T10:35:15;18.00;55.00
22769;DHT22;13001;51.968;5.918;2023-04-25T10:38:03;18.20;54.50
22769;DHT22;13001;51.968;5.918;2023-04-25T10:40:34;18.20;54.10
22769;DHT22;13001;51.968;5.918;2023-04-25T10:46:25;17.30;54.30
22769;DHT22;13001;51.968;5.918;2023-04-25T10:48:35;16.50;55.60
22769;DHT22;13001;51.968;5.918;2023-04-25T10:51:16;15.70;57.00
22769;DHT22;13001;51.968;5.918;2023-04-25T10:53:58;15.20;58.60
22769;DHT22;13001;51.968;5.918;2023-04-25T10:56:28;15.00;60.40
22769;DHT22;13001;51.968;5.918;2023-04-25T11:01:47;15.60;61.00
22769;DHT22;13001;51.968;5.918;2023-04-25T11:04:21;16.10;60.60
22769;DHT22;13001;51.968;5.918;2023-04-25T11:09:35;16.70;59.50
22769;DHT22;13001;51.968;5.918;2023-04-25T11:12:03;16.90;58.70
22769;DHT22;13001;51.968;5.918;2023-04-25T11:14:31;16.90;58.40
22769;DHT22;13001;51.968;5.918;2023-04-25T11:16:59;16.90;58.40
22769;DHT22;13001;51.968;5.918;2023-04-25T11:19:29;17.10;58.90
22769;DHT22;13001;51.968;5.918;2023-04-25T11:21:58;17.20;58.70
22769;DHT22;13001;51.968;5.918;2023-04-25T11:24:31;17.10;58.30
22769;DHT22;13001;51.968;5.918;2023-04-25T11:26:59;16.80;58.30
22769;DHT22;13001;51.968;5.918;2023-04-25T11:29:33;16.50;58.80
22769;DHT22;13001;51.968;5.918;2023-04-25T11:32:01;16.60;59.80
22769;DHT22;13001;51.968;5.918;2023-04-25T11:34:30;16.90;59.30
22769;DHT22;13001;51.968;5.918;2023-04-25T11:37:04;17.10;58.80
22769;DHT22;13001;51.968;5.918;2023-04-25T11:39:29;17.10;58.70
22769;DHT22;13001;51.968;5.918;2023-04-25T11:41:56;17.20;59.00
22769;DHT22;13001;51.968;5.918;2023-04-25T11:44:24;17.30;58.50
22769;DHT22;13001;51.968;5.918;2023-04-25T11:46:52;17.20;58.30
22769;DHT22;13001;51.968;5.918;2023-04-25T11:49:20;17.20;58.30
22769;DHT22;13001;51.968;5.918;2023-04-25T11:51:49;17.10;58.10
22769;DHT22;13001;51.968;5.918;2023-04-25T11:54:16;16.70;57.40
22769;DHT22;13001;51.968;5.918;2023-04-25T11:56:45;16.10;57.70
22769;DHT22;13001;51.968;5.918;2023-04-25T11:59:13;15.70;58.50
22769;DHT22;13001;51.968;5.918;2023-04-25T12:01:48;15.70;59.10
22769;DHT22;13001;51.968;5.918;2023-04-25T12:04:18;15.90;59.40
22769;DHT22;13001;51.968;5.918;2023-04-25T12:06:48;16.40;59.40
22769;DHT22;13001;51.968;5.918;2023-04-25T12:09:27;16.80;58.60
22769;DHT22;13001;51.968;5.918;2023-04-25T12:11:53;16.80;57.50
22769;DHT22;13001;51.968;5.918;2023-04-25T12:14:23;16.60;57.10
22769;DHT22;13001;51.968;5.918;2023-04-25T12:16:51;16.40;57.00
22769;DHT22;13001;51.968;5.918;2023-04-25T12:19:19;16.00;57.30
22769;DHT22;13001;51.968;5.918;2023-04-25T12:21:48;15.60;58.00
22769;DHT22;13001;51.968;5.918;2023-04-25T12:24:20;15.20;58.70
22769;DHT22;13001;51.968;5.918;2023-04-25T12:26:51;14.70;59.70
22769;DHT22;13001;51.968;5.918;2023-04-25T12:29:26;14.50;60.60
22769;DHT22;13001;51.968;5.918;2023-04-25T12:31:54;14.20;61.40
22769;DHT22;13001;51.968;5.918;2023-04-25T12:34:22;13.80;62.20
22769;DHT22;13001;51.968;5.918;2023-04-25T12:36:51;13.50;63.10
22769;DHT22;13001;51.968;5.918;2023-04-25T12:39:23;13.20;63.90
22769;DHT22;13001;51.968;5.918;2023-04-25T12:41:48;12.90;64.70
22769;DHT22;13001;51.968;5.918;2023-04-25T12:44:15;12.90;65.30
22769;DHT22;13001;51.968;5.918;2023-04-25T12:46:43;12.90;65.60
22769;DHT22;13001;51.968;5.918;2023-04-25T12:49:10;13.00;65.70
22769;DHT22;13001;51.968;5.918;2023-04-25T12:51:37;13.10;65.50
22769;DHT22;13001;51.968;5.918;2023-04-25T12:54:05;13.30;65.40
22769;DHT22;13001;51.968;5.918;2023-04-25T12:56:33;13.50;65.20
22769;DHT22;13001;51.968;5.918;2023-04-25T12:59:00;13.80;65.00
22769;DHT22;13001;51.968;5.918;2023-04-25T13:01:29;14.00;64.70
22769;DHT22;13001;51.968;5.918;2023-04-25T13:03:57;14.30;64.30
22769;DHT22;13001;51.968;5.918;2023-04-25T13:06:24;14.50;64.10
22769;DHT22;13001;51.968;5.918;2023-04-25T13:08:53;14.70;63.80
22769;DHT22;13001;51.968;5.918;2023-04-25T13:11:20;15.00;63.40
22769;DHT22;13001;51.968;5.918;2023-04-25T13:13:48;15.20;62.80
22769;DHT22;13001;51.968;5.918;2023-04-25T13:16:15;15.50;62.70
22769;DHT22;13001;51.968;5.918;2023-04-25T13:18:43;15.70;62.10
22769;DHT22;13001;51.968;5.918;2023-04-25T13:21:11;15.90;62.00
22769;DHT22;13001;51.968;5.918;2023-04-25T13:23:38;15.90;61.90
22769;DHT22;13001;51.968;5.918;2023-04-25T13:26:07;16.10;62.00
22769;DHT22;13001;51.968;5.918;2023-04-25T13:28:34;16.10;61.60
22769;DHT22;13001;51.968;5.918;2023-04-25T13:31:02;16.00;61.30
22769;DHT22;13001;51.968;5.918;2023-04-25T13:33:29;15.80;61.50
22769;DHT22;13001;51.968;5.918;2023-04-25T13:35:57;15.70;61.80
22769;DHT22;13001;51.968;5.918;2023-04-25T13:38:25;15.70;62.20
22769;DHT22;13001;51.968;5.918;2023-04-25T13:40:54;15.80;62.30
22769;DHT22;13001;51.968;5.918;2023-04-25T13:43:22;15.80;62.30
22769;DHT22;13001;51.968;5.918;2023-04-25T13:45:50;15.70;62.20
22769;DHT22;13001;51.968;5.918;2023-04-25T13:48:18;15.60;62.00
22769;DHT22;13001;51.968;5.918;2023-04-25T13:50:46;15.50;61.70
22769;DHT22;13001;51.968;5.918;2023-04-25T13:53:13;15.50;62.10
22769;DHT22;13001;51.968;5.918;2023-04-25T13:55:41;15.60;62.10
22769;DHT22;13001;51.968;5.918;2023-04-25T13:58:08;15.60;61.90
22769;DHT22;13001;51.968;5.918;2023-04-25T14:00:39;15.50;61.30
22769;DHT22;13001;51.968;5.918;2023-04-25T14:03:09;15.20;61.20
22769;DHT22;13001;51.968;5.918;2023-04-25T14:05:37;14.90;61.60
22769;DHT22;13001;51.968;5.918;2023-04-25T14:08:08;14.60;61.40
22769;DHT22;13001;51.968;5.918;2023-04-25T14:10:36;14.30;61.70
22769;DHT22;13001;51.968;5.918;2023-04-25T14:13:05;14.10;61.70
22769;DHT22;13001;51.968;5.918;2023-04-25T14:15:34;14.10;62.30
22769;DHT22;13001;51.968;5.918;2023-04-25T14:18:04;14.10;62.50
22769;DHT22;13001;51.968;5.918;2023-04-25T14:20:32;14.10;62.30
22769;DHT22;13001;51.968;5.918;2023-04-25T14:22:59;13.90;62.10
22769;DHT22;13001;51.968;5.918;2023-04-25T14:25:27;13.60;62.40
22769;DHT22;13001;51.968;5.918;2023-04-25T14:27:57;13.50;63.10
22769;DHT22;13001;51.968;5.918;2023-04-25T14:30:24;13.40;63.70
22769;DHT22;13001;51.968;5.918;2023-04-25T14:32:52;13.40;64.20
22769;DHT22;13001;51.968;5.918;2023-04-25T14:35:20;13.40;64.30
22769;DHT22;13001;51.968;5.918;2023-04-25T14:37:47;13.50;64.40
22769;DHT22;13001;51.968;5.918;2023-04-25T14:40:15;13.70;64.30
22769;DHT22;13001;51.968;5.918;2023-04-25T14:42:43;14.00;64.00
22769;DHT22;13001;51.968;5.918;2023-04-25T14:45:11;14.20;63.30
22769;DHT22;13001;51.968;5.918;2023-04-25T14:47:39;14.40;62.90
22769;DHT22;13001;51.968;5.918;2023-04-25T14:50:07;14.50;62.50
22769;DHT22;13001;51.968;5.918;2023-04-25T14:52:35;14.50;62.40
22769;DHT22;13001;51.968;5.918;2023-04-25T14:55:03;14.40;62.40
22769;DHT22;13001;51.968;5.918;2023-04-25T14:57:35;14.30;62.10
22769;DHT22;13001;51.968;5.918;2023-04-25T15:00:03;14.10;62.30
22769;DHT22;13001;51.968;5.918;2023-04-25T15:02:32;14.00;62.70
22769;DHT22;13001;51.968;5.918;2023-04-25T15:05:00;13.90;62.70
22769;DHT22;13001;51.968;5.918;2023-04-25T15:07:29;13.80;62.80
22769;DHT22;13001;51.968;5.918;2023-04-25T15:09:57;13.80;63.10
22769;DHT22;13001;51.968;5.918;2023-04-25T15:12:26;13.70;63.40
22769;DHT22;13001;51.968;5.918;2023-04-25T15:14:54;13.60;64.30
22769;DHT22;13001;51.968;5.918;2023-04-25T15:17:22;13.50;63.50
22769;DHT22;13001;51.968;5.918;2023-04-25T15:19:49;13.50;63.60
22769;DHT22;13001;51.968;5.918;2023-04-25T15:22:17;13.50;63.50
22769;DHT22;13001;51.968;5.918;2023-04-25T15:24:45;13.50;63.50
22769;DHT22;13001;51.968;5.918;2023-04-25T15:27:13;13.70;63.40
22769;DHT22;13001;51.968;5.918;2023-04-25T15:29:40;13.80;62.90
22769;DHT22;13001;51.968;5.918;2023-04-25T15:32:08;13.60;62.50
22769;DHT22;13001;51.968;5.918;2023-04-25T15:34:37;13.40;62.60
22769;DHT22;13001;51.968;5.918;2023-04-25T15:37:04;13.10;63.20
22769;DHT22;13001;51.968;5.918;2023-04-25T15:39:32;12.80;63.90
22769;DHT22;13001;51.968;5.918;2023-04-25T15:41:59;12.60;64.90
22769;DHT22;13001;51.968;5.918;2023-04-25T15:44:34;12.40;65.70
22769;DHT22;13001;51.968;5.918;2023-04-25T15:47:02;12.20;66.40
22769;DHT22;13001;51.968;5.918;2023-04-25T15:49:29;12.00;67.10
22769;DHT22;13001;51.968;5.918;2023-04-25T15:51:57;11.90;67.60
22769;DHT22;13001;51.968;5.918;2023-04-25T15:54:24;11.90;68.00
22769;DHT22;13001;51.968;5.918;2023-04-25T15:56:52;12.00;68.10
22769;DHT22;13001;51.968;5.918;2023-04-25T15:59:19;12.20;68.00
22769;DHT22;13001;51.968;5.918;2023-04-25T16:01:47;12.50;67.70
22769;DHT22;13001;51.968;5.918;2023-04-25T16:04:14;12.70;67.30
22769;DHT22;13001;51.968;5.918;2023-04-25T16:06:42;12.80;67.00
22769;DHT22;13001;51.968;5.918;2023-04-25T16:09:10;12.80;66.50
22769;DHT22;13001;51.968;5.918;2023-04-25T16:11:38;12.70;66.10
22769;DHT22;13001;51.968;5.918;2023-04-25T16:14:05;12.50;66.10
22769;DHT22;13001;51.968;5.918;2023-04-25T16:16:34;12.50;66.00
22769;DHT22;13001;51.968;5.918;2023-04-25T16:19:01;12.30;65.90
22769;DHT22;13001;51.968;5.918;2023-04-25T16:21:29;12.10;65.80
22769;DHT22;13001;51.968;5.918;2023-04-25T16:23:57;11.90;65.80
22769;DHT22;13001;51.968;5.918;2023-04-25T16:26:25;11.70;65.70
22769;DHT22;13001;51.968;5.918;2023-04-25T16:28:52;11.50;65.90
